Barfleur — FNIE — position and weather

sailwx.info

Track history (hours):
 
Tides and Currents Weather Stations Pressure Air Temp Water Temp Dewpoint Dewpoint Depression Visibility Wind Speed Wind Dir Waves Ship Positions

Barfleur

Operator: Brittany Ferries

Last reported at 2017-Feb-27 22:33 UTC. Time now 2017-Feb-27 22:48 UTC.
Position N 50°42' W 001°59'.

Length 158 m; draft 5 m.

Type: Passenger vessel. MMSI: 227289000.

Date/timePositionNaut miles runAvg speedWind from/ knotsBaromVisibWave heightAir tempDewpointWater temp
2017-Feb-27 22:33N 50°42' W 001°59'0 0.3
2017-Feb-27 21:33N 50°42' W 001°59'1414.2
2017-Feb-27 20:33N 50°29' W 001°51'2 0.2
2017-Feb-27 09:33N 50°27' W 001°50'1515.1
2017-Feb-27 08:34N 50°41' W 001°57'2 1.9
2017-Feb-27 07:33N 50°42' W 001°59'0 0.0
2017-Feb-27 06:33N 50°42' W 001°59'0 0.0
2017-Feb-27 05:33N 50°42' W 001°59'0 0.0
2017-Feb-27 04:33N 50°42' W 001°59'0 0.0
2017-Feb-27 03:33N 50°42' W 001°59'0 0.0
2017-Feb-27 02:33N 50°42' W 001°59'0 0.0
2017-Feb-27 01:33N 50°42' W 001°59'0 0.0
2017-Feb-27 00:33N 50°42' W 001°59'0 0.0
2017-Feb-26 23:33N 50°42' W 001°59'0 0.0
2017-Feb-26 22:33N 50°42' W 001°59'0 0.1
2017-Feb-26 21:34N 50°42' W 001°60'1212.4
2017-Feb-26 20:33N 50°31' W 001°51'30 3.2
2017-Feb-26 11:05N 50°01' W 001°45'1018.3
2017-Feb-26 10:31N 50°11' W 001°47'1717.8
2017-Feb-26 09:33N 50°29' W 001°51'1413.6
2017-Feb-26 08:33N 50°42' W 001°57'2 1.7
2017-Feb-26 07:33N 50°42' W 001°59'0 0.0
2017-Feb-26 06:33N 50°42' W 001°59'0 0.0
2017-Feb-26 05:33N 50°42' W 001°59'0 0.0
2017-Feb-26 04:34N 50°42' W 001°59'0 0.0
2017-Feb-26 03:33N 50°42' W 001°59'0 0.0
2017-Feb-26 02:33N 50°42' W 001°59'0 0.0
2017-Feb-26 01:34N 50°42' W 001°59'0 0.0
2017-Feb-26 00:34N 50°42' W 001°59'0 0.0
2017-Feb-25 23:34N 50°42' W 001°59'0 0.0
2017-Feb-25 22:34N 50°42' W 001°59'1 0.8
2017-Feb-25 21:34N 50°42' W 001°58'1514.7
2017-Feb-25 20:33N 50°29' W 001°49'33 3.6
2017-Feb-25 11:21N 49°56' W 001°44'3217.6
2017-Feb-25 09:32N 50°28' W 001°51'1515.2
2017-Feb-25 08:33N 50°42' W 001°57'1 1.4
2017-Feb-25 07:33N 50°42' W 001°59'0 0.0
2017-Feb-25 06:33N 50°42' W 001°59'0 0.0
2017-Feb-25 05:33N 50°42' W 001°59'0 0.0
2017-Feb-25 04:33N 50°42' W 001°59'0 0.0
2017-Feb-25 03:33N 50°42' W 001°59'0 0.0
2017-Feb-25 02:33N 50°42' W 001°59'0 0.0
2017-Feb-25 01:33N 50°42' W 001°59'0 0.0
2017-Feb-25 00:33N 50°42' W 001°59'0 0.0
2017-Feb-24 23:33N 50°42' W 001°59'0 0.0
2017-Feb-24 22:33N 50°42' W 001°59'1 0.5
2017-Feb-24 21:33N 50°42' W 001°59'1414.2
2017-Feb-24 20:33N 50°29' W 001°50'2 0.2
2017-Feb-24 09:33N 50°27' W 001°50'1615.7
2017-Feb-24 08:33N 50°42' W 001°58'1 1.1
2017-Feb-24 07:33N 50°42' W 001°59'0 0.0
2017-Feb-24 06:33N 50°42' W 001°59'0 0.0
2017-Feb-24 05:34N 50°42' W 001°59'0 0.0
2017-Feb-24 04:33N 50°42' W 001°59'0 0.0
2017-Feb-24 03:34N 50°42' W 001°59'0 0.0
2017-Feb-24 02:34N 50°42' W 001°59'0 0.0
2017-Feb-24 01:33N 50°42' W 001°59'0 0.0
2017-Feb-24 00:34N 50°42' W 001°59'0 0.0
2017-Feb-23 23:33N 50°42' W 001°59'0 0.0
2017-Feb-23 22:33N 50°42' W 001°59'2 2.3
2017-Feb-23 21:34N 50°41' W 001°57'12 1.3
2017-Feb-23 12:05N 50°29' W 001°51'917.7
2017-Feb-23 11:33N 50°38' W 001°55'5 5.0
2017-Feb-23 10:33N 50°42' W 001°59'0 0.3
2017-Feb-23 09:33N 50°42' W 001°59'9 8.7
2017-Feb-23 08:33N 50°36' W 001°49'5 4.5
2017-Feb-23 07:33N 50°40' W 001°51'3 3.1
2017-Feb-23 06:33N 50°41' W 001°47'1111.3
2017-Feb-23 05:33N 50°31' W 001°55'2813.7
2017-Feb-23 03:30N 50°03' W 001°54'1313.8
2017-Feb-23 02:34N 49°50' W 001°54'7 7.1
2017-Feb-23 01:34N 49°46' W 001°45'3 2.6
2017-Feb-23 00:33N 49°45' W 001°41'0 0.2
2017-Feb-22 23:34N 49°45' W 001°41'0 0.3
2017-Feb-22 22:33N 49°45' W 001°41'4 4.2
2017-Feb-22 21:33N 49°41' W 001°39'3 2.5
2017-Feb-22 20:34N 49°39' W 001°37'0 0.0
2017-Feb-22 19:33N 49°39' W 001°37'0 0.0
2017-Feb-22 18:33N 49°39' W 001°37'0 0.0
2017-Feb-22 17:33N 49°39' W 001°37'0 0.0
2017-Feb-22 16:34N 49°39' W 001°37'0 0.0
2017-Feb-22 15:34N 49°39' W 001°37'0 0.0
2017-Feb-22 14:33N 49°39' W 001°37'0 0.0
2017-Feb-22 13:34N 49°39' W 001°37'1 0.8
2017-Feb-22 12:34N 49°40' W 001°37'1615.8
2017-Feb-22 11:33N 49°54' W 001°46'1817.9
2017-Feb-22 10:34N 50°12' W 001°49'1817.6
2017-Feb-22 09:33N 50°30' W 001°51'1413.6
2017-Feb-22 08:33N 50°42' W 001°59'0 0.5
2017-Feb-22 07:33N 50°42' W 001°59'1 1.2
2017-Feb-22 06:33N 50°42' W 001°58'1111.2
2017-Feb-22 05:33N 50°31' W 001°54'4213.9
2017-Feb-22 02:33N 49°49' W 001°50'7 6.8
2017-Feb-22 01:33N 49°44' W 001°44'7 7.4
2017-Feb-22 00:33N 49°45' W 001°33'1 0.6
2017-Feb-21 23:33N 49°45' W 001°34'1 0.9
2017-Feb-21 22:33N 49°45' W 001°35'5 4.8
2017-Feb-21 21:33N 49°41' W 001°39'3 2.6
2017-Feb-21 20:33N 49°39' W 001°37'0 0.0
2017-Feb-21 19:33N 49°39' W 001°37'0 0.0
2017-Feb-21 18:33N 49°39' W 001°37'0 0.0
2017-Feb-21 17:33N 49°39' W 001°37'0 0.0
2017-Feb-21 16:33N 49°39' W 001°37'0 0.0
2017-Feb-21 15:33N 49°39' W 001°37'0 0.0
2017-Feb-21 14:34N 49°39' W 001°37'0 0.0
2017-Feb-21 13:33N 49°39' W 001°37'0 0.0
2017-Feb-21 12:33N 49°39' W 001°37'1313.2
2017-Feb-21 11:34N 49°52' W 001°42'3818.1
2017-Feb-21 09:28N 50°29' W 001°52'1314.7
2017-Feb-21 08:34N 50°42' W 001°57'2 1.6
2017-Feb-21 07:33N 50°42' W 001°59'0 0.0
2017-Feb-21 06:33N 50°42' W 001°59'0 0.0
2017-Feb-21 05:33N 50°42' W 001°59'0 0.0
2017-Feb-21 04:33N 50°42' W 001°59'0 0.0
2017-Feb-21 03:34N 50°42' W 001°59'0 0.0
2017-Feb-21 02:33N 50°42' W 001°59'0 0.0
2017-Feb-21 01:33N 50°42' W 001°59'0 0.0
2017-Feb-21 00:33N 50°42' W 001°59'0 0.0
2017-Feb-20 23:33N 50°42' W 001°59'0 0.0
2017-Feb-20 22:33N 50°42' W 001°59'1 1.4
2017-Feb-20 21:33N 50°42' W 001°57'1313.2
2017-Feb-20 20:33N 50°29' W 001°51'2318.3
2017-Feb-20 19:18N 50°07' W 001°46'1318.2
2017-Feb-20 18:33N 49°53' W 001°43'1514.8
2017-Feb-20 17:33N 49°39' W 001°37'0 0.1
2017-Feb-20 16:33N 49°39' W 001°37'0 0.0
2017-Feb-20 15:33N 49°39' W 001°37'0 0.0
2017-Feb-20 14:33N 49°39' W 001°37'0 0.0
2017-Feb-20 13:34N 49°39' W 001°37'0 0.0
2017-Feb-20 12:33N 49°39' W 001°37'1212.2
2017-Feb-20 11:34N 49°51' W 001°42'1918.5
2017-Feb-20 10:33N 50°09' W 001°48'2018.5
2017-Feb-20 09:28N 50°29' W 001°53'1314.8
2017-Feb-20 08:34N 50°42' W 001°57'2 1.6
2017-Feb-20 07:33N 50°42' W 001°59'0 0.0
2017-Feb-20 06:33N 50°42' W 001°59'0 0.0
2017-Feb-20 05:33N 50°42' W 001°59'0 0.0
2017-Feb-20 04:33N 50°42' W 001°59'0 0.0
2017-Feb-20 03:33N 50°42' W 001°59'0 0.0
2017-Feb-20 02:33N 50°42' W 001°59'0 0.0
2017-Feb-20 01:33N 50°42' W 001°59'0 0.0
2017-Feb-20 00:33N 50°42' W 001°59'0 0.0
2017-Feb-19 23:33N 50°42' W 001°59'0 0.0
2017-Feb-19 22:33N 50°42' W 001°59'0 0.1
2017-Feb-19 21:33N 50°42' W 001°60'1010.2
2017-Feb-19 20:33N 50°33' W 001°53'3618.3
2017-Feb-19 18:33N 49°57' W 001°44'1717.2
2017-Feb-19 17:33N 49°40' W 001°38'2 1.7
2017-Feb-19 16:33N 49°39' W 001°37'0 0.0
2017-Feb-19 15:33N 49°39' W 001°37'0 0.0
2017-Feb-19 14:34N 49°39' W 001°37'0 0.0
2017-Feb-19 13:34N 49°39' W 001°37'0 0.0
2017-Feb-19 12:34N 49°39' W 001°37'1313.2
2017-Feb-19 11:34N 49°51' W 001°46'1817.7
2017-Feb-19 10:33N 50°08' W 001°46'1918.4
2017-Feb-19 09:32N 50°27' W 001°49'1515.6
2017-Feb-19 08:33N 50°42' W 001°57'2 1.7
2017-Feb-19 07:34N 50°42' W 001°59'0 0.0
2017-Feb-19 06:33N 50°42' W 001°59'0 0.0
2017-Feb-19 05:34N 50°42' W 001°59'0 0.0
2017-Feb-19 04:34N 50°42' W 001°59'0 0.0
2017-Feb-19 03:33N 50°42' W 001°59'0 0.0
2017-Feb-19 02:34N 50°42' W 001°59'0 0.0
2017-Feb-19 01:34N 50°42' W 001°59'0 0.0
2017-Feb-19 00:34N 50°42' W 001°59'0 0.0
2017-Feb-18 23:34N 50°42' W 001°59'0 0.0
2017-Feb-18 22:34N 50°42' W 001°59'0 0.1
2017-Feb-18 21:34N 50°42' W 001°60'1111.3
2017-Feb-18 20:33N 50°32' W 001°52'1818.5
2017-Feb-18 19:33N 50°14' W 001°51'1918.5
2017-Feb-18 18:33N 49°56' W 001°46'1716.8
2017-Feb-18 17:33N 49°40' W 001°37'1 0.7
2017-Feb-18 16:33N 49°39' W 001°37'0 0.0
2017-Feb-18 15:33N 49°39' W 001°37'0 0.0
2017-Feb-18 14:33N 49°39' W 001°37'0 0.0
2017-Feb-18 13:33N 49°39' W 001°37'0 0.1
2017-Feb-18 12:34N 49°39' W 001°37'1514.8
2017-Feb-18 11:34N 49°53' W 001°43'1918.2
2017-Feb-18 10:30N 50°12' W 001°47'1718.3
2017-Feb-18 09:33N 50°29' W 001°51'1413.7
2017-Feb-18 08:33N 50°42' W 001°58'1 0.7
2017-Feb-18 07:33N 50°42' W 001°59'0 0.0
2017-Feb-18 06:33N 50°42' W 001°59'0 0.0
2017-Feb-18 05:33N 50°42' W 001°59'0 0.0
2017-Feb-18 04:33N 50°42' W 001°59'0 0.0
2017-Feb-18 03:33N 50°42' W 001°59'0 0.0
2017-Feb-18 02:33N 50°42' W 001°59'0 0.0
2017-Feb-18 01:33N 50°42' W 001°59'0 0.0
2017-Feb-18 00:33N 50°42' W 001°59'0 0.0
2017-Feb-17 23:33N 50°42' W 001°59'0 0.0
2017-Feb-17 22:33N 50°42' W 001°59'  
Track history (hours):
 
Tides and Currents Weather Stations Pressure Air Temp Water Temp Dewpoint Dewpoint Depression Visibility Wind Speed Wind Dir Waves Ship Positions

Barfleur

Operator: Brittany Ferries

Last reported at 2017-Feb-27 22:33 UTC. Time now 2017-Feb-27 22:48 UTC.
Position N 50°42' W 001°59'.

Length 158 m; draft 5 m.

Type: Passenger vessel. MMSI: 227289000.

Date/timePositionNaut miles runAvg speedWind from/ knotsBaromVisibWave heightAir tempDewpointWater temp
2017-Feb-27 22:33N 50°42' W 001°59'0 0.3
2017-Feb-27 21:33N 50°42' W 001°59'1414.2
2017-Feb-27 20:33N 50°29' W 001°51'2 0.2
2017-Feb-27 09:33N 50°27' W 001°50'1515.1
2017-Feb-27 08:34N 50°41' W 001°57'2 1.9
2017-Feb-27 07:33N 50°42' W 001°59'0 0.0
2017-Feb-27 06:33N 50°42' W 001°59'0 0.0
2017-Feb-27 05:33N 50°42' W 001°59'0 0.0
2017-Feb-27 04:33N 50°42' W 001°59'0 0.0
2017-Feb-27 03:33N 50°42' W 001°59'0 0.0
2017-Feb-27 02:33N 50°42' W 001°59'0 0.0
2017-Feb-27 01:33N 50°42' W 001°59'0 0.0
2017-Feb-27 00:33N 50°42' W 001°59'0 0.0
2017-Feb-26 23:33N 50°42' W 001°59'0 0.0
2017-Feb-26 22:33N 50°42' W 001°59'0 0.1
2017-Feb-26 21:34N 50°42' W 001°60'1212.4
2017-Feb-26 20:33N 50°31' W 001°51'30 3.2
2017-Feb-26 11:05N 50°01' W 001°45'1018.3
2017-Feb-26 10:31N 50°11' W 001°47'1717.8
2017-Feb-26 09:33N 50°29' W 001°51'1413.6
2017-Feb-26 08:33N 50°42' W 001°57'2 1.7
2017-Feb-26 07:33N 50°42' W 001°59'0 0.0
2017-Feb-26 06:33N 50°42' W 001°59'0 0.0
2017-Feb-26 05:33N 50°42' W 001°59'0 0.0
2017-Feb-26 04:34N 50°42' W 001°59'0 0.0
2017-Feb-26 03:33N 50°42' W 001°59'0 0.0
2017-Feb-26 02:33N 50°42' W 001°59'0 0.0
2017-Feb-26 01:34N 50°42' W 001°59'0 0.0
2017-Feb-26 00:34N 50°42' W 001°59'0 0.0
2017-Feb-25 23:34N 50°42' W 001°59'0 0.0
2017-Feb-25 22:34N 50°42' W 001°59'1 0.8
2017-Feb-25 21:34N 50°42' W 001°58'1514.7
2017-Feb-25 20:33N 50°29' W 001°49'33 3.6
2017-Feb-25 11:21N 49°56' W 001°44'3217.6
2017-Feb-25 09:32N 50°28' W 001°51'1515.2
2017-Feb-25 08:33N 50°42' W 001°57'1 1.4
2017-Feb-25 07:33N 50°42' W 001°59'0 0.0
2017-Feb-25 06:33N 50°42' W 001°59'0 0.0
2017-Feb-25 05:33N 50°42' W 001°59'0 0.0
2017-Feb-25 04:33N 50°42' W 001°59'0 0.0
2017-Feb-25 03:33N 50°42' W 001°59'0 0.0
2017-Feb-25 02:33N 50°42' W 001°59'0 0.0
2017-Feb-25 01:33N 50°42' W 001°59'0 0.0
2017-Feb-25 00:33N 50°42' W 001°59'0 0.0
2017-Feb-24 23:33N 50°42' W 001°59'0 0.0
2017-Feb-24 22:33N 50°42' W 001°59'1 0.5
2017-Feb-24 21:33N 50°42' W 001°59'1414.2
2017-Feb-24 20:33N 50°29' W 001°50'2 0.2
2017-Feb-24 09:33N 50°27' W 001°50'1615.7
2017-Feb-24 08:33N 50°42' W 001°58'1 1.1
2017-Feb-24 07:33N 50°42' W 001°59'0 0.0
2017-Feb-24 06:33N 50°42' W 001°59'0 0.0
2017-Feb-24 05:34N 50°42' W 001°59'0 0.0
2017-Feb-24 04:33N 50°42' W 001°59'0 0.0
2017-Feb-24 03:34N 50°42' W 001°59'0 0.0
2017-Feb-24 02:34N 50°42' W 001°59'0 0.0
2017-Feb-24 01:33N 50°42' W 001°59'0 0.0
2017-Feb-24 00:34N 50°42' W 001°59'0 0.0
2017-Feb-23 23:33N 50°42' W 001°59'0 0.0
2017-Feb-23 22:33N 50°42' W 001°59'2 2.3
2017-Feb-23 21:34N 50°41' W 001°57'12 1.3
2017-Feb-23 12:05N 50°29' W 001°51'917.7
2017-Feb-23 11:33N 50°38' W 001°55'5 5.0
2017-Feb-23 10:33N 50°42' W 001°59'0 0.3
2017-Feb-23 09:33N 50°42' W 001°59'9 8.7
2017-Feb-23 08:33N 50°36' W 001°49'5 4.5
2017-Feb-23 07:33N 50°40' W 001°51'3 3.1
2017-Feb-23 06:33N 50°41' W 001°47'1111.3
2017-Feb-23 05:33N 50°31' W 001°55'2813.7
2017-Feb-23 03:30N 50°03' W 001°54'1313.8
2017-Feb-23 02:34N 49°50' W 001°54'7 7.1
2017-Feb-23 01:34N 49°46' W 001°45'3 2.6
2017-Feb-23 00:33N 49°45' W 001°41'0 0.2
2017-Feb-22 23:34N 49°45' W 001°41'0 0.3
2017-Feb-22 22:33N 49°45' W 001°41'4 4.2
2017-Feb-22 21:33N 49°41' W 001°39'3 2.5
2017-Feb-22 20:34N 49°39' W 001°37'0 0.0
2017-Feb-22 19:33N 49°39' W 001°37'0 0.0
2017-Feb-22 18:33N 49°39' W 001°37'0 0.0
2017-Feb-22 17:33N 49°39' W 001°37'0 0.0
2017-Feb-22 16:34N 49°39' W 001°37'0 0.0
2017-Feb-22 15:34N 49°39' W 001°37'0 0.0
2017-Feb-22 14:33N 49°39' W 001°37'0 0.0
2017-Feb-22 13:34N 49°39' W 001°37'1 0.8
2017-Feb-22 12:34N 49°40' W 001°37'1615.8
2017-Feb-22 11:33N 49°54' W 001°46'1817.9
2017-Feb-22 10:34N 50°12' W 001°49'1817.6
2017-Feb-22 09:33N 50°30' W 001°51'1413.6
2017-Feb-22 08:33N 50°42' W 001°59'0 0.5
2017-Feb-22 07:33N 50°42' W 001°59'1 1.2
2017-Feb-22 06:33N 50°42' W 001°58'1111.2
2017-Feb-22 05:33N 50°31' W 001°54'4213.9
2017-Feb-22 02:33N 49°49' W 001°50'7 6.8
2017-Feb-22 01:33N 49°44' W 001°44'7 7.4
2017-Feb-22 00:33N 49°45' W 001°33'1 0.6
2017-Feb-21 23:33N 49°45' W 001°34'1 0.9
2017-Feb-21 22:33N 49°45' W 001°35'5 4.8
2017-Feb-21 21:33N 49°41' W 001°39'3 2.6
2017-Feb-21 20:33N 49°39' W 001°37'0 0.0
2017-Feb-21 19:33N 49°39' W 001°37'0 0.0
2017-Feb-21 18:33N 49°39' W 001°37'0 0.0
2017-Feb-21 17:33N 49°39' W 001°37'0 0.0
2017-Feb-21 16:33N 49°39' W 001°37'0 0.0
2017-Feb-21 15:33N 49°39' W 001°37'0 0.0
2017-Feb-21 14:34N 49°39' W 001°37'0 0.0
2017-Feb-21 13:33N 49°39' W 001°37'0 0.0
2017-Feb-21 12:33N 49°39' W 001°37'1313.2
2017-Feb-21 11:34N 49°52' W 001°42'3818.1
2017-Feb-21 09:28N 50°29' W 001°52'1314.7
2017-Feb-21 08:34N 50°42' W 001°57'2 1.6
2017-Feb-21 07:33N 50°42' W 001°59'0 0.0
2017-Feb-21 06:33N 50°42' W 001°59'0 0.0
2017-Feb-21 05:33N 50°42' W 001°59'0 0.0
2017-Feb-21 04:33N 50°42' W 001°59'0 0.0
2017-Feb-21 03:34N 50°42' W 001°59'0 0.0
2017-Feb-21 02:33N 50°42' W 001°59'0 0.0
2017-Feb-21 01:33N 50°42' W 001°59'0 0.0
2017-Feb-21 00:33N 50°42' W 001°59'0 0.0
2017-Feb-20 23:33N 50°42' W 001°59'0 0.0
2017-Feb-20 22:33N 50°42' W 001°59'1 1.4
2017-Feb-20 21:33N 50°42' W 001°57'1313.2
2017-Feb-20 20:33N 50°29' W 001°51'2318.3
2017-Feb-20 19:18N 50°07' W 001°46'1318.2
2017-Feb-20 18:33N 49°53' W 001°43'1514.8
2017-Feb-20 17:33N 49°39' W 001°37'0 0.1
2017-Feb-20 16:33N 49°39' W 001°37'0 0.0
2017-Feb-20 15:33N 49°39' W 001°37'0 0.0
2017-Feb-20 14:33N 49°39' W 001°37'0 0.0
2017-Feb-20 13:34N 49°39' W 001°37'0 0.0
2017-Feb-20 12:33N 49°39' W 001°37'1212.2
2017-Feb-20 11:34N 49°51' W 001°42'1918.5
2017-Feb-20 10:33N 50°09' W 001°48'2018.5
2017-Feb-20 09:28N 50°29' W 001°53'1314.8
2017-Feb-20 08:34N 50°42' W 001°57'2 1.6
2017-Feb-20 07:33N 50°42' W 001°59'0 0.0
2017-Feb-20 06:33N 50°42' W 001°59'0 0.0
2017-Feb-20 05:33N 50°42' W 001°59'0 0.0
2017-Feb-20 04:33N 50°42' W 001°59'0 0.0
2017-Feb-20 03:33N 50°42' W 001°59'0 0.0
2017-Feb-20 02:33N 50°42' W 001°59'0 0.0
2017-Feb-20 01:33N 50°42' W 001°59'0 0.0
2017-Feb-20 00:33N 50°42' W 001°59'0 0.0
2017-Feb-19 23:33N 50°42' W 001°59'0 0.0
2017-Feb-19 22:33N 50°42' W 001°59'0 0.1
2017-Feb-19 21:33N 50°42' W 001°60'1010.2
2017-Feb-19 20:33N 50°33' W 001°53'3618.3
2017-Feb-19 18:33N 49°57' W 001°44'1717.2
2017-Feb-19 17:33N 49°40' W 001°38'2 1.7
2017-Feb-19 16:33N 49°39' W 001°37'0 0.0
2017-Feb-19 15:33N 49°39' W 001°37'0 0.0
2017-Feb-19 14:34N 49°39' W 001°37'0 0.0
2017-Feb-19 13:34N 49°39' W 001°37'0 0.0
2017-Feb-19 12:34N 49°39' W 001°37'1313.2
2017-Feb-19 11:34N 49°51' W 001°46'1817.7
2017-Feb-19 10:33N 50°08' W 001°46'1918.4
2017-Feb-19 09:32N 50°27' W 001°49'1515.6
2017-Feb-19 08:33N 50°42' W 001°57'2 1.7
2017-Feb-19 07:34N 50°42' W 001°59'0 0.0
2017-Feb-19 06:33N 50°42' W 001°59'0 0.0
2017-Feb-19 05:34N 50°42' W 001°59'0 0.0
2017-Feb-19 04:34N 50°42' W 001°59'0 0.0
2017-Feb-19 03:33N 50°42' W 001°59'0 0.0
2017-Feb-19 02:34N 50°42' W 001°59'0 0.0
2017-Feb-19 01:34N 50°42' W 001°59'0 0.0
2017-Feb-19 00:34N 50°42' W 001°59'0 0.0
2017-Feb-18 23:34N 50°42' W 001°59'0 0.0
2017-Feb-18 22:34N 50°42' W 001°59'0 0.1
2017-Feb-18 21:34N 50°42' W 001°60'1111.3
2017-Feb-18 20:33N 50°32' W 001°52'1818.5
2017-Feb-18 19:33N 50°14' W 001°51'1918.5
2017-Feb-18 18:33N 49°56' W 001°46'1716.8
2017-Feb-18 17:33N 49°40' W 001°37'1 0.7
2017-Feb-18 16:33N 49°39' W 001°37'0 0.0
2017-Feb-18 15:33N 49°39' W 001°37'0 0.0
2017-Feb-18 14:33N 49°39' W 001°37'0 0.0
2017-Feb-18 13:33N 49°39' W 001°37'0 0.1
2017-Feb-18 12:34N 49°39' W 001°37'1514.8
2017-Feb-18 11:34N 49°53' W 001°43'1918.2
2017-Feb-18 10:30N 50°12' W 001°47'1718.3
2017-Feb-18 09:33N 50°29' W 001°51'1413.7
2017-Feb-18 08:33N 50°42' W 001°58'1 0.7
2017-Feb-18 07:33N 50°42' W 001°59'0 0.0
2017-Feb-18 06:33N 50°42' W 001°59'0 0.0
2017-Feb-18 05:33N 50°42' W 001°59'0 0.0
2017-Feb-18 04:33N 50°42' W 001°59'0 0.0
2017-Feb-18 03:33N 50°42' W 001°59'0 0.0
2017-Feb-18 02:33N 50°42' W 001°59'0 0.0
2017-Feb-18 01:33N 50°42' W 001°59'0 0.0
2017-Feb-18 00:33N 50°42' W 001°59'0 0.0
2017-Feb-17 23:33N 50°42' W 001°59'0 0.0
2017-Feb-17 22:33N 50°42' W 001°59'  

Dump ship's entire track history